createdAt,value
2018-11-02T00:00:13.857Z,9.97
2018-11-02T00:02:38.933Z,9.03
2018-11-02T00:05:04.020Z,8.57
2018-11-02T00:07:29.105Z,12.33
2018-11-02T00:09:54.228Z,8.43
2018-11-02T00:12:19.327Z,10.83
2018-11-02T00:14:44.373Z,8.57
2018-11-02T00:17:09.461Z,8.53
2018-11-02T00:19:35.341Z,9.90
2018-11-02T00:22:01.895Z,8.17
2018-11-02T00:24:27.284Z,8.33
2018-11-02T00:26:52.331Z,8.50
2018-11-02T00:29:17.427Z,7.87
2018-11-02T00:31:42.586Z,9.07
2018-11-02T00:34:07.620Z,8.70
2018-11-02T00:36:32.733Z,12.43
2018-11-02T00:38:57.823Z,11.27
2018-11-02T00:44:16.641Z,9.43
2018-11-02T00:46:41.728Z,10.33
2018-11-02T00:49:07.263Z,9.70
2018-11-02T00:54:09.009Z,10.97
2018-11-02T00:56:34.176Z,10.43
2018-11-02T00:59:18.491Z,9.03
2018-11-02T01:01:43.572Z,10.07
2018-11-02T01:04:08.698Z,11.80
2018-11-02T01:06:33.805Z,10.90
2018-11-02T01:11:36.013Z,9.70
2018-11-02T01:14:01.145Z,11.70
2018-11-02T01:16:26.317Z,10.87
2018-11-02T01:18:51.402Z,11.07
2018-11-02T01:21:16.504Z,9.70
2018-11-02T01:23:41.575Z,10.57
2018-11-02T01:26:07.120Z,11.10
2018-11-02T01:28:32.306Z,11.80
2018-11-02T01:30:57.389Z,11.83
2018-11-02T01:33:37.245Z,11.00
2018-11-02T01:36:02.335Z,11.77
2018-11-02T01:38:27.435Z,11.60
2018-11-02T01:40:52.548Z,11.43
2018-11-02T01:43:17.653Z,12.37
2018-11-02T01:45:42.818Z,11.30
2018-11-02T01:50:47.355Z,11.17
2018-11-02T01:53:12.469Z,10.67
2018-11-02T01:55:37.912Z,12.33
2018-11-02T01:58:03.023Z,12.23
2018-11-02T02:00:28.139Z,13.23
2018-11-02T02:02:53.217Z,12.23
2018-11-02T02:05:18.301Z,12.33
2018-11-02T02:07:43.419Z,11.40
2018-11-02T02:10:08.494Z,13.13
2018-11-02T02:12:33.573Z,12.67
2018-11-02T02:15:17.674Z,11.23
2018-11-02T02:18:01.752Z,12.27
2018-11-02T02:20:26.854Z,11.13
2018-11-02T02:22:51.973Z,12.67
2018-11-02T02:25:17.034Z,12.53
2018-11-02T02:27:42.133Z,11.37
2018-11-02T02:33:04.936Z,13.33
2018-11-02T02:35:30.023Z,12.77
2018-11-02T02:37:55.161Z,11.60
2018-11-02T02:40:39.247Z,15.20
2018-11-02T02:43:04.795Z,12.03
2018-11-02T02:45:30.078Z,11.13
2018-11-02T02:47:55.142Z,11.17
2018-11-02T02:50:20.244Z,10.43
2018-11-02T02:52:45.477Z,12.00
2018-11-02T02:55:10.594Z,11.47
2018-11-02T02:57:36.306Z,12.10
2018-11-02T03:00:01.541Z,12.17
2018-11-02T03:02:26.628Z,11.80
2018-11-02T03:04:51.744Z,10.70
2018-11-02T03:07:16.863Z,13.20
2018-11-02T03:10:00.926Z,12.07
2018-11-02T03:12:44.999Z,11.10
2018-11-02T03:15:10.232Z,10.63
2018-11-02T03:17:35.528Z,11.77
2018-11-02T03:20:00.656Z,11.27
2018-11-02T03:25:02.478Z,14.43
2018-11-02T03:27:27.600Z,11.60
2018-11-02T03:29:52.749Z,12.53
2018-11-02T03:32:17.874Z,12.17
2018-11-02T03:34:42.965Z,11.90
2018-11-02T03:37:08.115Z,12.00
2018-11-02T03:39:33.243Z,12.47
2018-11-02T03:41:58.368Z,10.87
2018-11-02T03:44:23.444Z,10.97
2018-11-02T03:46:48.530Z,10.97
2018-11-02T03:49:13.666Z,12.30
2018-11-02T03:51:38.723Z,11.27
2018-11-02T03:54:03.944Z,11.33
2018-11-02T03:56:31.318Z,10.90
2018-11-02T03:58:54.151Z,9.93
2018-11-02T04:01:19.276Z,13.10
2018-11-02T04:03:44.339Z,12.53
2018-11-02T04:06:09.457Z,10.10
2018-11-02T04:08:34.569Z,11.20
2018-11-02T04:11:18.629Z,11.73
2018-11-02T04:13:43.699Z,11.67
2018-11-02T04:16:08.823Z,12.30
2018-11-02T04:21:10.048Z,10.97
2018-11-02T04:23:35.176Z,13.00
2018-11-02T04:26:00.257Z,11.90
2018-11-02T04:28:25.373Z,11.33
2018-11-02T04:30:50.521Z,11.07
2018-11-02T04:33:15.539Z,11.03
2018-11-02T04:35:40.723Z,10.90
2018-11-02T04:38:05.868Z,11.13
2018-11-02T04:40:30.963Z,10.70
2018-11-02T04:42:56.068Z,10.53
2018-11-02T04:45:39.886Z,12.57
2018-11-02T04:48:05.022Z,11.73
2018-11-02T04:50:30.126Z,11.07
2018-11-02T04:52:55.201Z,10.43
2018-11-02T04:55:20.312Z,9.80
2018-11-02T04:58:04.332Z,12.27
2018-11-02T05:00:29.504Z,10.47
2018-11-02T05:02:54.653Z,10.10
2018-11-02T05:05:19.704Z,10.83
2018-11-02T05:07:44.805Z,10.37
2018-11-02T05:10:10.463Z,9.30
2018-11-02T05:12:35.542Z,9.57
2018-11-02T05:15:00.636Z,10.03
2018-11-02T05:17:25.755Z,9.73
2018-11-02T05:19:50.809Z,9.70
2018-11-02T05:24:54.915Z,9.23
2018-11-02T05:27:19.992Z,9.23
2018-11-02T05:29:45.476Z,9.40
2018-11-02T05:32:10.580Z,8.93
2018-11-02T05:34:35.720Z,9.27
2018-11-02T05:37:00.817Z,10.50
2018-11-02T05:39:25.951Z,9.43
2018-11-02T05:42:09.977Z,8.80
2018-11-02T05:44:35.034Z,8.80
2018-11-02T05:47:00.304Z,9.13
2018-11-02T05:52:20.906Z,9.33
2018-11-02T05:54:45.998Z,8.53
2018-11-02T05:57:11.301Z,8.53
2018-11-02T05:59:36.497Z,9.47
2018-11-02T06:02:01.651Z,8.60
2018-11-02T06:04:45.680Z,7.83
2018-11-02T06:07:10.737Z,8.93
2018-11-02T06:09:35.800Z,7.97
2018-11-02T06:12:00.887Z,8.17
2018-11-02T06:14:26.023Z,7.57
2018-11-02T06:16:51.391Z,8.47
2018-11-02T06:21:55.792Z,8.17
2018-11-02T06:24:20.976Z,8.37
2018-11-02T06:27:04.959Z,7.67
2018-11-02T06:29:30.057Z,9.23
2018-11-02T06:31:55.180Z,7.90
2018-11-02T06:34:20.271Z,7.47
2018-11-02T06:36:45.343Z,7.33
2018-11-02T06:39:29.447Z,8.20
2018-11-02T06:41:54.547Z,8.00
2018-11-02T06:44:19.675Z,7.53
2018-11-02T06:46:44.805Z,7.53
2018-11-02T06:49:09.933Z,8.30
2018-11-02T06:51:35.038Z,8.77
2018-11-02T06:56:39.867Z,8.17
2018-11-02T06:59:04.966Z,8.23
2018-11-02T07:04:14.346Z,7.53
2018-11-02T07:06:39.415Z,7.70
2018-11-02T07:09:05.012Z,7.90
2018-11-02T07:11:30.100Z,7.20
2018-11-02T07:13:55.347Z,7.67
2018-11-02T07:16:20.446Z,7.03
2018-11-02T07:18:45.529Z,7.47
2018-11-02T07:21:10.714Z,8.00
2018-11-02T07:23:35.800Z,6.97
2018-11-02T07:26:19.946Z,6.83
2018-11-02T07:28:56.478Z,7.23
2018-11-02T07:31:22.557Z,7.07
2018-11-02T07:33:47.664Z,7.00
2018-11-02T07:36:12.728Z,6.67
2018-11-02T07:38:56.817Z,6.83
2018-11-02T07:41:21.927Z,7.43
2018-11-02T07:43:47.055Z,7.33
2018-11-02T07:46:12.134Z,8.13
2018-11-02T07:48:37.214Z,7.73
2018-11-02T07:51:02.344Z,7.13
2018-11-02T07:53:27.411Z,7.93
2018-11-02T07:56:11.498Z,7.30
2018-11-02T07:58:36.594Z,6.77
2018-11-02T08:01:01.709Z,6.97
2018-11-02T08:03:26.795Z,6.87
2018-11-02T08:05:51.902Z,7.40
2018-11-02T08:08:17.033Z,8.03
2018-11-02T08:10:42.099Z,6.73
2018-11-02T08:13:07.345Z,6.53
2018-11-02T08:15:51.374Z,6.17
2018-11-02T08:18:35.482Z,7.07
2018-11-02T08:23:16.536Z,6.40
2018-11-02T08:25:41.704Z,7.30
2018-11-02T08:28:25.758Z,6.07
2018-11-02T08:31:09.914Z,5.90
2018-11-02T08:33:34.976Z,6.20
2018-11-02T08:36:00.056Z,6.37
2018-11-02T08:38:25.208Z,5.70
2018-11-02T08:40:50.287Z,5.50
2018-11-02T08:43:15.460Z,6.20
2018-11-02T08:45:40.553Z,5.50
2018-11-02T08:48:05.907Z,5.30
2018-11-02T08:50:31.008Z,5.70
2018-11-02T08:53:07.807Z,7.10
2018-11-02T08:55:32.941Z,5.33
2018-11-02T08:57:58.252Z,5.80
2018-11-02T09:00:23.079Z,5.27
2018-11-02T09:02:48.211Z,5.67
2018-11-02T09:05:13.398Z,7.20
2018-11-02T09:07:39.014Z,6.47
2018-11-02T09:10:04.143Z,5.60
2018-11-02T09:12:29.259Z,6.20
2018-11-02T09:14:54.387Z,5.47
2018-11-02T09:17:38.398Z,8.37
2018-11-02T09:20:03.558Z,6.63
2018-11-02T09:22:28.671Z,4.80
2018-11-02T09:24:53.859Z,6.60
2018-11-02T09:27:18.986Z,5.80
2018-11-02T09:30:02.971Z,4.83
2018-11-02T09:32:28.084Z,6.60
2018-11-02T09:34:53.219Z,5.60
2018-11-02T09:37:18.334Z,6.00
2018-11-02T09:39:43.434Z,6.13
2018-11-02T09:42:08.518Z,5.87
2018-11-02T09:44:33.627Z,5.67
2018-11-02T09:46:58.695Z,5.40
2018-11-02T09:49:28.282Z,5.57
2018-11-02T09:51:53.380Z,5.97
2018-11-02T09:54:18.411Z,5.23
2018-11-02T09:56:43.502Z,6.03
2018-11-02T09:59:08.567Z,5.50
2018-11-02T10:01:33.703Z,5.80
2018-11-02T10:03:58.783Z,5.30
2018-11-02T10:06:23.876Z,5.83
2018-11-02T10:09:08.048Z,4.40
2018-11-02T10:11:33.004Z,4.40
2018-11-02T10:13:58.097Z,7.17
2018-11-02T10:16:23.198Z,4.10
2018-11-02T10:18:48.274Z,4.40
2018-11-02T10:21:13.371Z,3.73
2018-11-02T10:23:38.502Z,4.20
2018-11-02T10:26:03.565Z,5.20
2018-11-02T10:28:28.668Z,4.53
2018-11-02T10:30:53.734Z,3.87
2018-11-02T10:33:18.829Z,4.43
2018-11-02T10:35:44.371Z,4.03
2018-11-02T10:38:09.480Z,3.90
2018-11-02T10:40:35.304Z,4.00
2018-11-02T10:43:03.939Z,3.60
2018-11-02T10:45:48.251Z,4.47
2018-11-02T10:48:13.328Z,3.67
2018-11-02T10:50:38.440Z,4.77
2018-11-02T10:53:03.643Z,4.60
2018-11-02T10:55:28.902Z,5.33
2018-11-02T10:58:12.953Z,6.00
2018-11-02T11:00:56.951Z,6.23
2018-11-02T11:03:22.270Z,5.77
2018-11-02T11:05:47.433Z,5.73
2018-11-02T11:08:12.477Z,6.33
2018-11-02T11:10:37.571Z,5.13
2018-11-02T11:13:03.110Z,5.73
2018-11-02T11:15:27.802Z,5.03
2018-11-02T11:17:52.924Z,4.67
2018-11-02T11:20:18.009Z,5.10
2018-11-02T11:22:43.233Z,4.77
2018-11-02T11:25:10.787Z,5.50
2018-11-02T11:27:35.915Z,5.93
2018-11-02T11:30:01.041Z,6.10
2018-11-02T11:32:26.197Z,6.80
2018-11-02T11:35:02.527Z,6.27
2018-11-02T11:37:27.614Z,6.03
2018-11-02T11:39:52.990Z,5.80
2018-11-02T11:42:36.780Z,5.30
2018-11-02T11:45:01.937Z,6.03
2018-11-02T11:47:27.053Z,5.30
2018-11-02T11:49:52.149Z,5.77
2018-11-02T11:52:17.247Z,8.63
2018-11-02T11:54:42.462Z,7.77
2018-11-02T11:57:08.038Z,4.30
2018-11-02T11:59:33.150Z,8.57
2018-11-02T12:01:58.230Z,4.97
2018-11-02T12:04:23.360Z,3.30
2018-11-02T12:06:48.425Z,2.57
2018-11-02T12:09:13.516Z,2.80
2018-11-02T12:11:38.618Z,3.57
2018-11-02T12:14:03.729Z,2.93
2018-11-02T12:16:28.923Z,3.73
2018-11-02T12:19:12.960Z,6.57
2018-11-02T12:21:38.151Z,5.97
2018-11-02T12:24:03.195Z,2.97
2018-11-02T12:26:28.275Z,6.03
2018-11-02T12:28:53.463Z,2.70
2018-11-02T12:31:18.479Z,3.13
2018-11-02T12:33:43.704Z,3.87
2018-11-02T12:36:08.829Z,3.07
2018-11-02T12:38:33.976Z,3.30
2018-11-02T12:40:59.125Z,3.23
2018-11-02T12:43:24.325Z,3.03
2018-11-02T12:45:49.429Z,3.50
2018-11-02T12:48:14.588Z,3.37
2018-11-02T12:50:39.713Z,4.27
2018-11-02T12:53:04.820Z,2.40
2018-11-02T12:55:29.941Z,2.33
2018-11-02T12:57:55.043Z,2.37
2018-11-02T13:00:39.099Z,3.70
2018-11-02T13:03:04.242Z,1.70
2018-11-02T13:05:29.341Z,2.10
2018-11-02T13:07:54.456Z,1.70
2018-11-02T13:10:20.729Z,2.57
2018-11-02T13:12:45.847Z,2.77
2018-11-02T13:15:13.112Z,3.47
2018-11-02T13:17:38.476Z,2.47
2018-11-02T13:20:06.222Z,1.80
2018-11-02T13:22:31.286Z,1.97
2018-11-02T13:24:56.406Z,2.20
2018-11-02T13:27:21.532Z,2.10
2018-11-02T13:29:46.688Z,2.03
2018-11-02T13:32:11.771Z,2.93
2018-11-02T13:34:55.856Z,1.23
2018-11-02T13:37:21.333Z,3.67
2018-11-02T13:40:05.462Z,1.70
2018-11-02T13:42:30.546Z,3.77
2018-11-02T13:44:55.694Z,1.53
2018-11-02T13:47:20.809Z,2.93
2018-11-02T13:50:04.631Z,1.60
2018-11-02T13:52:29.707Z,1.80
2018-11-02T13:54:54.802Z,2.60
2018-11-02T13:57:22.326Z,2.03
2018-11-02T13:59:47.467Z,3.67
2018-11-02T14:02:12.569Z,3.23
2018-11-02T14:04:37.771Z,2.93
2018-11-02T14:07:02.883Z,2.67
2018-11-02T14:09:47.000Z,3.47
2018-11-02T14:12:12.088Z,3.10
2018-11-02T14:14:37.199Z,4.13
2018-11-02T14:17:02.352Z,3.07
2018-11-02T14:19:27.417Z,4.77
2018-11-02T14:21:52.553Z,3.90
2018-11-02T14:24:17.637Z,4.50
2018-11-02T14:26:42.727Z,9.07
2018-11-02T14:29:07.839Z,8.53
2018-11-02T14:31:33.000Z,6.73
2018-11-02T14:33:58.110Z,6.13
2018-11-02T14:36:23.194Z,6.63
2018-11-02T14:38:48.366Z,6.50
2018-11-02T14:41:13.552Z,7.10
2018-11-02T14:43:38.622Z,7.37
2018-11-02T14:46:03.768Z,8.03
2018-11-02T14:48:28.856Z,9.13
2018-11-02T14:50:53.971Z,10.23
2018-11-02T14:53:19.120Z,15.43
2018-11-02T14:56:02.893Z,12.53
2018-11-02T14:58:28.038Z,13.47
2018-11-02T15:00:53.218Z,11.17
2018-11-02T15:03:30.146Z,8.80
2018-11-02T15:05:55.301Z,10.73
2018-11-02T15:11:16.018Z,9.67
2018-11-02T15:13:41.031Z,8.57
2018-11-02T15:16:06.245Z,7.83
2018-11-02T15:18:43.500Z,7.77
2018-11-02T15:21:30.209Z,8.07
2018-11-02T15:23:55.436Z,9.23
2018-11-02T15:26:20.592Z,8.50
2018-11-02T15:28:45.681Z,9.23
2018-11-02T15:31:10.743Z,8.83
2018-11-02T15:33:35.913Z,9.10
2018-11-02T15:36:01.022Z,10.60
2018-11-02T15:38:26.211Z,10.60
2018-11-02T15:40:51.343Z,11.53
2018-11-02T15:43:16.444Z,11.50
2018-11-02T15:46:00.516Z,9.13
2018-11-02T15:48:25.626Z,9.67
2018-11-02T15:50:50.782Z,10.17
2018-11-02T15:53:15.916Z,9.83
2018-11-02T15:55:40.961Z,10.37
2018-11-02T15:58:06.212Z,12.60
2018-11-02T16:00:31.359Z,11.20
2018-11-02T16:02:56.512Z,11.67
2018-11-02T16:05:21.623Z,10.27
2018-11-02T16:07:46.733Z,10.53
2018-11-02T16:10:12.601Z,9.70
2018-11-02T16:12:37.748Z,10.40
2018-11-02T16:15:02.915Z,10.87
2018-11-02T16:17:28.056Z,13.43
2018-11-02T16:19:53.174Z,12.27
2018-11-02T16:22:18.271Z,14.47
2018-11-02T16:24:43.400Z,12.20
2018-11-02T16:27:08.557Z,16.50
2018-11-02T16:29:33.658Z,19.70
2018-11-02T16:31:58.776Z,18.27
2018-11-02T16:34:24.056Z,20.70
2018-11-02T16:36:49.041Z,14.33
2018-11-02T16:39:14.168Z,14.73
2018-11-02T16:41:39.726Z,14.20
2018-11-02T16:44:04.991Z,12.00
2018-11-02T16:46:30.036Z,13.80
2018-11-02T16:48:55.205Z,27.20
2018-11-02T16:51:20.297Z,33.17
2018-11-02T16:53:45.424Z,48.70
2018-11-02T16:56:10.573Z,43.50
2018-11-02T16:58:35.859Z,16.50
2018-11-02T17:01:00.969Z,11.50
2018-11-02T17:03:26.183Z,13.03
2018-11-02T17:05:51.377Z,11.77
2018-11-02T17:08:16.383Z,10.03
2018-11-02T17:10:41.516Z,8.87
2018-11-02T17:13:07.113Z,11.73
2018-11-02T17:15:32.300Z,12.40
2018-11-02T17:17:57.416Z,15.70
2018-11-02T17:20:22.515Z,19.10
2018-11-02T17:22:47.959Z,15.23
2018-11-02T17:25:15.228Z,19.23
2018-11-02T17:27:40.589Z,18.53
2018-11-02T17:30:06.405Z,19.73
2018-11-02T17:32:31.571Z,16.33
2018-11-02T17:35:15.687Z,17.30
2018-11-02T17:40:17.271Z,13.00
2018-11-02T17:42:42.834Z,12.90
2018-11-02T17:45:08.740Z,14.50
2018-11-02T17:47:33.924Z,20.03
2018-11-02T17:49:59.017Z,17.53
2018-11-02T17:52:24.817Z,15.37
2018-11-02T17:54:49.949Z,15.17
2018-11-02T17:59:54.374Z,14.03
2018-11-02T18:02:19.535Z,14.83
2018-11-02T18:04:44.662Z,19.00
2018-11-02T18:07:09.796Z,13.70
2018-11-02T18:09:34.929Z,11.97
2018-11-02T18:12:00.086Z,12.77
2018-11-02T18:14:25.230Z,16.13
2018-11-02T18:16:50.309Z,12.83
2018-11-02T18:19:15.445Z,16.07
2018-11-02T18:21:40.746Z,15.07
2018-11-02T18:24:24.960Z,11.97
2018-11-02T18:26:50.105Z,13.53
2018-11-02T18:29:15.284Z,12.20
2018-11-02T18:31:40.367Z,9.90
2018-11-02T18:36:42.572Z,10.27
2018-11-02T18:39:13.040Z,8.70
2018-11-02T18:41:38.202Z,8.37
2018-11-02T18:44:03.380Z,8.53
2018-11-02T18:46:28.531Z,9.53
2018-11-02T18:51:30.392Z,15.50
2018-11-02T18:53:55.492Z,8.97
2018-11-02T18:56:20.611Z,7.77
2018-11-02T18:58:45.721Z,9.43
2018-11-02T19:01:10.839Z,9.37
2018-11-02T19:03:36.028Z,8.10
2018-11-02T19:06:01.135Z,12.47
2018-11-02T19:08:26.332Z,7.93
2018-11-02T19:10:51.457Z,9.27
2018-11-02T19:13:16.631Z,7.83
2018-11-02T19:15:41.875Z,6.87
2018-11-02T19:18:06.941Z,9.00
2018-11-02T19:20:32.249Z,8.00
2018-11-02T19:22:57.214Z,7.50
2018-11-02T19:25:22.339Z,9.67
2018-11-02T19:27:47.684Z,8.60
2018-11-02T19:30:13.738Z,8.33
2018-11-02T19:32:57.916Z,6.90
2018-11-02T19:35:23.213Z,7.60
2018-11-02T19:37:48.257Z,7.90
2018-11-02T19:40:32.329Z,13.00
2018-11-02T19:42:57.489Z,12.60
2018-11-02T19:45:23.003Z,18.20
2018-11-02T19:48:06.835Z,15.57
2018-11-02T19:50:32.084Z,13.53
2018-11-02T19:52:57.137Z,13.53
2018-11-02T19:55:22.389Z,6.97
2018-11-02T19:58:06.379Z,9.40
2018-11-02T20:00:31.529Z,8.90
2018-11-02T20:03:15.567Z,7.00
2018-11-02T20:05:40.714Z,6.30
2018-11-02T20:08:06.133Z,6.87
2018-11-02T20:13:09.861Z,10.03
2018-11-02T20:15:34.997Z,12.40
2018-11-02T20:18:00.207Z,10.47
2018-11-02T20:20:25.397Z,10.27
2018-11-02T20:22:50.585Z,9.00
2018-11-02T20:25:17.196Z,9.73
2018-11-02T20:27:42.363Z,8.73
2018-11-02T20:32:56.448Z,8.43
2018-11-02T20:35:21.639Z,9.40
2018-11-02T20:37:46.757Z,12.27
2018-11-02T20:40:31.662Z,10.87
2018-11-02T20:42:56.801Z,8.20
2018-11-02T20:45:21.943Z,9.37
2018-11-02T20:47:49.576Z,9.17
2018-11-02T20:50:14.698Z,9.27
2018-11-02T20:52:39.954Z,6.80
2018-11-02T20:55:05.094Z,8.13
2018-11-02T20:57:31.164Z,9.47
2018-11-02T20:59:56.211Z,7.67
2018-11-02T21:02:21.380Z,8.83
2018-11-02T21:04:46.601Z,7.43
2018-11-02T21:07:11.808Z,8.57
2018-11-02T21:09:37.195Z,14.97
2018-11-02T21:12:02.078Z,22.40
2018-11-02T21:14:27.455Z,17.50
2018-11-02T21:16:52.421Z,13.03
2018-11-02T21:19:17.978Z,13.63
2018-11-02T21:21:43.186Z,14.97
2018-11-02T21:24:08.574Z,18.53
2018-11-02T21:26:33.698Z,16.37
2018-11-02T21:28:59.021Z,16.40
2018-11-02T21:31:24.038Z,15.93
2018-11-02T21:33:49.274Z,17.20
2018-11-02T21:36:14.395Z,15.10
2018-11-02T21:41:16.926Z,14.03
2018-11-02T21:43:42.117Z,14.03
2018-11-02T21:46:07.396Z,14.50
2018-11-02T21:48:32.549Z,13.37
2018-11-02T21:50:57.646Z,14.80
2018-11-02T21:53:22.927Z,14.20
2018-11-02T21:55:48.070Z,14.63
2018-11-02T21:58:13.235Z,14.60
2018-11-02T22:00:38.336Z,15.57
2018-11-02T22:03:03.428Z,16.17
2018-11-02T22:05:28.993Z,14.67
2018-11-02T22:07:54.051Z,21.33
2018-11-02T22:10:19.344Z,22.37
2018-11-02T22:12:44.528Z,16.87
2018-11-02T22:17:47.273Z,18.97
2018-11-02T22:22:49.648Z,15.70
2018-11-02T22:27:51.509Z,16.17
2018-11-02T22:30:17.643Z,18.97
2018-11-02T22:32:42.772Z,13.30
2018-11-02T22:35:07.939Z,16.40
2018-11-02T22:37:33.102Z,13.73
2018-11-02T22:39:58.302Z,14.17
2018-11-02T22:42:23.465Z,14.67
2018-11-02T22:44:48.598Z,15.33
2018-11-02T22:47:13.823Z,15.37
2018-11-02T22:49:38.945Z,15.87
2018-11-02T22:52:04.097Z,15.87
2018-11-02T22:54:29.250Z,16.70
2018-11-02T22:56:54.401Z,16.57
2018-11-02T22:59:19.519Z,19.60
2018-11-02T23:02:03.639Z,22.23
2018-11-02T23:04:28.845Z,17.53
2018-11-02T23:06:53.991Z,21.57
2018-11-02T23:09:19.163Z,23.83
2018-11-02T23:11:44.296Z,23.20
2018-11-02T23:14:09.489Z,21.63
2018-11-02T23:16:34.596Z,23.17
2018-11-02T23:18:59.736Z,22.70
2018-11-02T23:21:24.938Z,21.27
2018-11-02T23:23:50.039Z,26.33
2018-11-02T23:26:15.333Z,23.07
2018-11-02T23:28:40.607Z,20.47
2018-11-02T23:31:05.727Z,21.67
2018-11-02T23:33:49.933Z,20.60
2018-11-02T23:36:15.084Z,21.70
2018-11-02T23:38:40.211Z,23.40
2018-11-02T23:41:05.375Z,21.57
2018-11-02T23:43:30.546Z,20.03
2018-11-02T23:45:55.671Z,20.40
2018-11-02T23:48:21.054Z,21.33
2018-11-02T23:50:47.802Z,19.47
2018-11-02T23:53:12.915Z,24.43
2018-11-02T23:55:38.017Z,27.80
2018-11-02T23:58:03.266Z,22.33
